Clarendon, Arkansas
Current Conditions -  °F | °C
As of 12:15 PM on Monday 24 Nov 2014 (Local Time) from KSGT Reporting Station
Clear Clear  
Wind Chill: 55°   Ceiling: Unl
Heat Index: 55°   Visibility: 10mi
Dew Point: 34°   Wind: 18mph
Humidity: 44%   Direction: 290°WNW
Pressure: 29.92"   Gusts: 23mph
Location:  34.69°N, 91.31°W
Report Text: KSGT 241815Z AUTO 29016G20KT 10SM CLR 13/01 A2992 RMK AO1
Loading
Personal Weather Stations






























Interactive Weather Map New forecast layout! Learn more

10-Day Weather Forecast

Advertisements
Track Severe Weather on mobile